Tiempo atmosférico en la estación meteorológica de Nerja, Málaga (169 m.)



Fecha
DESCASC
Temp. máxima en grados centígrados (hora)
DESCASC
Temp. mínima en grados centígrados (hora)
DESCASC
Temp. media en grados centígrados
DESCASC
Racha de viento máxima en m/sg (hora)
DESCASC
Velocidad máxima media en intervalos de 10 minutos(hora)
DESCASC
Precipitaciones diarias en mm
DESCASC
Precipitaciones de 00:00 a 06:00 en mm
DESCASC
Precipitaciones de 06:00 a 12:00 en mm
DESCASC
Precipitaciones de 12:00 a 18:00 en mm
DESCASC
Precipitaciones de 18:00 a 24:00 en mm
DESCASC
25-01-2020 14.7 (00:50) 10.1 (09:50) 12.4 8.89 (08:50) 5.83 (08:40) 20.2 2.2 12.8 2.4 2.8
24-01-2020 16.9 (14:40) 9.5 (04:30) 13.2 7.5 (16:40) 3.61 (16:30) 6 5.8 0 0 0.2
23-01-2020 17.4 (14:50) 12.3 (04:00) 14.8 10.56 (11:10) 4.72 (08:10) 0 0 0 0 0
22-01-2020 12.4 (23:59) 8.9 (00:00) 10.6 9.17 (04:40) 4.44 (19:30) 18.8 0 1 17.8 0
21-01-2020 14.3 (12:10) 8.8 (00:00) 11.6 8.06 (23:10) 3.06 (03:00) 10.8 0 0 6.6 4.2
20-01-2020 11.4 (14:40) 7.7 (00:00) 9.5 8.89 (07:30) 6.11 (07:40) 1.2 0 0.8 0 0.4
19-01-2020 16.2 (12:20) 10.6 (00:00) 13.4 14.72 (12:10) 6.67 (08:50) 0.4 0.4 0 0 0
18-01-2020 15.4 (14:50) 12.7 (00:00) 14 5.83 (22:50) 3.61 (22:50) 0.4 0 0 0.4 0
17-01-2020 20.1 (13:30) 10.1 (00:00) 15.1 6.39 (12:10) 3.89 (22:50) 0 0 0 0 0
16-01-2020 17.9 (14:30) 10 (00:00) 13.9 3.33 (02:30) 2.78 (02:40) 0 0 0 0 0
15-01-2020 17.2 (16:20) 9.9 (00:00) 13.6 4.17 (14:00) 2.78 (05:10) 0 0 0 0 0
14-01-2020 16.2 (13:40) 8.1 (00:00) 12.2 6.94 (14:30) 3.61 (14:30) 0 0 0 0 0
13-01-2020 15.6 (13:50) 8.7 (00:00) 12.2 4.72 (08:30) 3.61 (08:30) 0 0 0 0 0
12-01-2020 15.9 (16:40) 9.3 (00:00) 12.6 5.56 (13:30) 3.61 (03:40) 0 0 0 0 0
11-01-2020 16.8 (14:50) 9.8 (00:00) 13.3 4.72 (06:50) 3.33 (02:20) 0 0 0 0 0
10-01-2020 17.4 (15:50) 9 (00:00) 13.2 7.22 (20:00) 3.33 (20:00) 0 0 0 0 0
09-01-2020 14.3 (14:50) 11.4 (00:00) 12.8 3.33 (00:20) 1.94 (00:10) 0 0 0 0 0
08-01-2020 15.8 (14:30) 8.7 (00:00) 12.3 4.17 (23:20) 3.06 (23:10) 0 0 0 0 0
07-01-2020 16 (14:00) 9.1 (00:00) 12.6 4.72 (01:20) 3.61 (01:30) 0 0 0 0 0
06-01-2020 15.6 (16:10) 9.4 (00:00) 12.5 5 (07:00) 3.61 (05:30) 0 0 0 0 0
05-01-2020 16.7 (13:20) 9.9 (00:00) 13.3 5.83 (00:30) 3.33 (22:20) 0 0 0 0 0
04-01-2020 14.6 (14:00) 9.8 (00:00) 12.2 6.94 (21:40) 3.06 (09:20) 0 0 0 0 0
03-01-2020 15.6 (14:40) 9.7 (00:00) 12.7 4.72 (16:00) 3.06 (16:00) 0 0 0 0 0
02-01-2020 16 (14:30) 10 (00:00) 13 4.17 (15:00) 2.78 (20:40) 0 0 0 0 0
01-01-2020 16.1 (13:50) 9.7 (00:00) 12.9 4.44 (06:50) 3.33 (07:00) 0 0 0 0 0
31-12-2019 16.9 (14:40) 9.6 (00:00) 13.3 6.39 (15:10) 3.33 (23:10) 0 0 0 0 0
30-12-2019 -- (--) -- (--) -- -- (--) -- (--) -- 0 0 -- 0
29-12-2019 16.6 (13:00) 10.1 (00:00) 13.4 6.94 (12:20) 3.33 (11:00) 0 0 0 0 0
28-12-2019 17.1 (14:30) 11.3 (00:00) 14.2 4.17 (14:30) 2.5 (01:50) 0 0 0 0 0

Gráficas

Temp. máximas Temp. mínimas Temp. medias Precipitaciones Rachas de viento máximas Velocidades máximas media en intervalos de 10 minutos

Datos horarios

Fecha y hora oficial Temperatura (ºC) Velocidad del viento (km/h) Dirección del viento Racha (km/h) Dirección de racha Precipitación (mm) Presión (hPa) Tendencia (hPa) Humedad (%)
2020-01-26 23:00:00 11.2 7 Nordeste 14 Norte 0 -- -- 64
2020-01-26 22:00:00 12.1 8 Nordeste 14 Nordeste 0 -- -- 57
2020-01-26 21:00:00 12.3 4 Norte 12 Norte 0 -- -- 58
2020-01-26 20:00:00 14.1 8 Norte 17 Norte 0 -- -- 55
2020-01-26 19:00:00 14.4 8 Norte 21 Noroeste 0 -- -- 56
2020-01-26 18:00:00 16.9 7 Noroeste 24 Oeste 0 -- -- 46
2020-01-26 17:00:00 18 13 Noroeste 24 Oeste 0 -- -- 45
2020-01-26 16:00:00 18.1 12 Noroeste 24 Noroeste 0 -- -- 45
2020-01-26 15:00:00 18 13 Noroeste 24 Noroeste 0 -- -- 44
2020-01-26 14:00:00 18.1 11 Oeste 24 Oeste 0 -- -- 44
2020-01-26 13:00:00 17.6 4 Norte 19 Oeste 0 -- -- 52
2020-01-26 12:00:00 16.5 3 Sur 10 Sudeste 0 -- -- 57
2020-01-26 11:00:00 15.2 4 Sur 9 Sur 0 -- -- 71
2020-01-26 10:00:00 12.8 3 Oeste 10 Norte 0 -- -- 72
2020-01-26 09:00:00 11 8 Norte 19 Norte 0 -- -- 74
2020-01-26 08:00:00 10.8 7 Norte 15 Norte 0 -- -- 74
2020-01-26 07:00:00 10.5 10 Norte 18 Norte 0 -- -- 79
2020-01-26 06:00:00 9.5 6 Norte 13 Norte 0 -- -- 90
2020-01-26 05:00:00 9.4 3 Norte 9 Norte 0 -- -- 92
2020-01-26 04:00:00 9 5 Noroeste 11 Norte 0 -- -- 94
2020-01-26 03:00:00 9 4 Noroeste 13 Noroeste 0.2 -- -- 95
2020-01-26 02:00:00 8.8 9 Norte 11 Norte 0 -- -- 96
2020-01-26 01:00:00 9.3 5 Norte 10 Norte 0 -- -- 95
2020-01-26 00:00:00 10.2 4 Norte 9 Norte 0 -- -- 96
2020-01-25 23:00:00 10.6 0 Calma 13 Oeste 1.4 -- -- 94
2020-01-25 22:00:00 11.4 10 Noroeste 31 Norte 0.2 -- -- 83
2020-01-25 21:00:00 11.1 15 Norte 29 Norte 0.4 -- -- 86
2020-01-25 20:00:00 11.1 7 Noroeste 12 Noroeste 0.8 -- -- 92
2020-01-25 19:00:00 11.6 3 Norte 8 Sudeste 0 -- -- 91
2020-01-25 18:00:00 12.2 7 Noroeste 16 Noroeste 0 -- -- 83
2020-01-25 17:00:00 12.2 9 Noroeste 19 Noroeste 0.2 -- -- 81
2020-01-25 16:00:00 11.6 10 Norte 13 Norte 0.4 -- -- 93
2020-01-25 15:00:00 12.2 5 Este 12 Norte 1.6 -- -- 92
2020-01-25 14:00:00 13.6 2 Norte 10 Noroeste 0.2 -- -- 89
2020-01-25 13:00:00 12.2 3 Norte 15 Norte 0 -- -- 95
2020-01-25 12:00:00 10.8 7 Norte 13 Norte 0.4 -- -- 95
2020-01-25 11:00:00 10.5 12 Norte 25 Noroeste 2 -- -- 92
2020-01-25 10:00:00 10.1 9 Nordeste 31 Norte 6.2 -- -- 92
2020-01-25 09:00:00 10.9 18 Noroeste 32 Noroeste 4.2 -- -- 86
2020-01-25 08:00:00 12.3 10 Noroeste 28 Nordeste 0 -- -- 78
2020-01-25 07:00:00 12.8 9 Nordeste 24 Este 0 -- -- 73
2020-01-25 06:00:00 12.3 3 Noroeste 31 Norte 0.2 -- -- 83
2020-01-25 05:00:00 12 6 Este 24 Este 0.4 -- -- 88
2020-01-25 04:00:00 12.2 12 Nordeste 27 Nordeste 1.4 -- -- 89
2020-01-25 03:00:00 12.3 4 Nordeste 19 Nordeste 0.2 -- -- 87
2020-01-25 02:00:00 14 6 Sudeste 31 Este 0 -- -- 67
2020-01-25 01:00:00 14.4 8 Sudeste 21 Nordeste 0 -- -- 65
2020-01-25 00:00:00 14.3 11 Nordeste 24 Nordeste 0 -- -- 60
2020-01-24 23:00:00 14.1 4 Nordeste 20 Nordeste 0 -- -- 64
2020-01-24 22:00:00 14 8 Este 23 Nordeste 0 -- -- 68
2020-01-24 21:00:00 12.4 4 Nordeste 15 Este 0.2 -- -- 90
2020-01-24 20:00:00 12.7 3 Norte 17 Este 0 -- -- 85
2020-01-24 19:00:00 13 4 Sudeste 19 Sudeste 0 -- -- 83
2020-01-24 18:00:00 13.8 5 Sudeste 21 Sudeste 0 -- -- 74
2020-01-24 17:00:00 14.5 9 Sudeste 27 Este 0 -- -- 78
2020-01-24 16:00:00 15.3 8 Sudeste 24 Sudeste 0 -- -- 77
2020-01-24 15:00:00 16.8 9 Sudeste 23 Sudeste 0 -- -- 66
2020-01-24 14:00:00 16.4 9 Sudeste 24 Sudeste 0 -- -- 66
2020-01-24 13:00:00 14.3 5 Sudeste 18 Sur 0 -- -- 74
2020-01-24 12:00:00 15.6 4 Sudeste 16 Sudeste 0 -- -- 68
2020-01-24 11:00:00 14.9 5 Sudeste 17 Sudeste 0 -- -- 64
2020-01-24 10:00:00 13.1 3 Sudeste 15 Nordeste 0 -- -- 68
2020-01-24 09:00:00 12.1 5 Nordeste 14 Norte 0 -- -- 69
2020-01-24 08:00:00 11.5 10 Norte 15 Norte 0 -- -- 75
2020-01-24 07:00:00 11 5 Norte 17 Nordeste 0 -- -- 80
2020-01-24 06:00:00 11 6 Norte 19 Este 0 -- -- 78
2020-01-24 05:00:00 10 11 Norte 23 Norte 2 -- -- 85
2020-01-24 04:00:00 10 4 Noroeste 14 Norte 2 -- -- 91
2020-01-24 03:00:00 10.9 10 Norte 15 Norte 1 -- -- 91
2020-01-24 02:00:00 12.3 6 Norte 11 Nordeste 0.8 -- -- 92
2020-01-24 01:00:00 12.8 4 Oeste 12 Oeste 0 -- -- 88
2020-01-24 00:00:00 13.6 7 Oeste 19 Este 0 -- -- 79
2020-01-23 23:00:00 13.9 5 Este 17 Este 0 -- -- 60
2020-01-23 22:00:00 14.5 8 Nordeste 30 Nordeste 0 -- -- 55
2020-01-23 21:00:00 13.5 11 Nordeste 27 Este 0 -- -- 74
2020-01-23 20:00:00 13.4 8 Este 20 Este 0 -- -- 81
2020-01-23 19:00:00 14.2 9 Este 33 Este 0 -- -- 62
2020-01-23 18:00:00 14.3 12 Este 28 Este 0 -- -- 65
2020-01-23 17:00:00 16 8 Este 28 Sudeste 0 -- -- 64
2020-01-23 16:00:00 15.3 15 Sudeste 34 Sudeste 0 -- -- 72
2020-01-23 15:00:00 17.3 11 Sudeste 33 Sudeste 0 -- -- 63
2020-01-23 14:00:00 17.3 10 Sudeste 28 Sudeste 0 -- -- 60
2020-01-23 13:00:00 16.2 10 Este 27 Sudeste 0 -- -- 60
2020-01-23 12:00:00 15.3 9 Este 38 Nordeste 0 -- -- 56
2020-01-23 11:00:00 14.6 13 Este 31 Este 0 -- -- 55
2020-01-23 10:00:00 13.9 13 Nordeste 35 Nordeste 0 -- -- 57
2020-01-23 09:00:00 13.5 15 Nordeste 32 Nordeste 0 -- -- 60
2020-01-23 08:00:00 13.4 15 Nordeste 33 Nordeste 0 -- -- 61
2020-01-23 07:00:00 12.5 7 Este 21 Nordeste 0 -- -- 68
2020-01-23 06:00:00 12.6 12 Nordeste 32 Nordeste 0 -- -- 68
2020-01-23 05:00:00 12.5 15 Nordeste 33 Nordeste 0 -- -- 75
2020-01-23 04:00:00 12.3 10 Nordeste 29 Este 0 -- -- 74
2020-01-23 03:00:00 12.6 10 Nordeste 32 Este 0 -- -- 74
2020-01-23 02:00:00 12.8 8 Este 28 Nordeste 0 -- -- 73
2020-01-23 01:00:00 12.8 12 Nordeste 28 Nordeste 0 -- -- 74
2020-01-23 00:00:00 12.4 12 Nordeste 30 Nordeste 0 -- -- 73
2020-01-22 23:00:00 12 13 Nordeste 28 Este 0 -- -- 75
2020-01-22 22:00:00 11.9 13 Nordeste 27 Este 0 -- -- 72
2020-01-22 21:00:00 11.8 12 Nordeste 32 Nordeste 0 -- -- 71
2020-01-22 20:00:00 12 12 Nordeste 33 Nordeste 0 -- -- 69
2020-01-22 19:00:00 11.2 10 Este 24 Este 0 -- -- 79
2020-01-22 18:00:00 10.7 8 Nordeste 24 Este 1.2 -- -- 83
2020-01-22 17:00:00 9.9 11 Nordeste 22 Nordeste 8.6 -- -- 95
2020-01-22 16:00:00 10.5 5 Noroeste 13 Este 4.2 -- -- 95
2020-01-22 15:00:00 10.6 0 Calma 10 Norte 0.8 -- -- 93
2020-01-22 14:00:00 10.1 6 Norte 15 Norte 1.6 -- -- 92
2020-01-22 13:00:00 10.2 9 Noroeste 15 Noroeste 1.4 -- -- 89
2020-01-22 12:00:00 10.8 4 Oeste 9 Sur 0.6 -- -- 87
2020-01-22 11:00:00 12 2 Sudoeste 18 Nordeste 0 -- -- 77
2020-01-22 10:00:00 11.5 4 Este 14 Este 0 -- -- 68
2020-01-22 09:00:00 10.2 5 Nordeste 8 Norte 0.4 -- -- 84
2020-01-22 08:00:00 11.2 5 Oeste 23 Sudeste 0 -- -- 79
2020-01-22 07:00:00 11.4 2 Nordeste 13 Sur 0 -- -- 69
2020-01-22 06:00:00 11.9 3 Sudeste 28 Nordeste 0 -- -- 65
2020-01-22 05:00:00 11.4 10 Este 33 Nordeste 0 -- -- 68
2020-01-22 04:00:00 11.2 9 Este 28 Nordeste 0 -- -- 70
2020-01-22 03:00:00 11.1 12 Nordeste 25 Nordeste 0 -- -- 70
2020-01-22 02:00:00 10.7 6 Nordeste 23 Nordeste 0 -- -- 73
2020-01-22 01:00:00 10.1 11 Norte 24 Este 0 -- -- 75
2020-01-22 00:00:00 8.9 5 Norte 29 Nordeste 0.6 -- -- 89
2020-01-21 23:00:00 9 10 Nordeste 22 Nordeste 1.4 -- -- 85
2020-01-21 22:00:00 9.1 5 Norte 13 Norte 1.2 -- -- 91
2020-01-21 21:00:00 9.3 4 Nordeste 18 Nordeste 0.4 -- -- 89
2020-01-21 20:00:00 9.5 6 Nordeste 14 Nordeste 0.4 -- -- 94
2020-01-21 19:00:00 9.5 4 Nordeste 12 Norte 0.2 -- -- 94
2020-01-21 18:00:00 9.7 7 Norte 10 Norte 3 -- -- 94
2020-01-21 17:00:00 10.7 4 Este 10 Sur 3.6 -- -- 87
2020-01-21 16:00:00 12.2 4 Sudoeste 9 Sudoeste 0 -- -- 73
2020-01-21 15:00:00 11.6 4 Sudoeste 19 Sur 0 -- -- 84
2020-01-21 14:00:00 13.8 4 Sur 13 Sudoeste 0 -- -- 61
2020-01-21 13:00:00 13.2 4 Sudeste 18 Sudeste 0 -- -- 64
2020-01-21 12:00:00 14.1 9 Sudeste 20 Sudeste 0 -- -- 57
2020-01-21 11:00:00 11.6 5 Nordeste 13 Este 0 -- -- 70
2020-01-21 10:00:00 10.5 0 Calma 6 Norte 0 -- -- 72
2020-01-21 09:00:00 9.9 3 Nordeste 10 Nordeste 0 -- -- 67
2020-01-21 08:00:00 9.6 6 Nordeste 10 Nordeste 0 -- -- 70
2020-01-21 07:00:00 9.6 0 Calma 13 Norte 0 -- -- 68
2020-01-21 06:00:00 9.4 4 Nordeste 11 Norte 0 -- -- 70
2020-01-21 05:00:00 9.6 8 Norte 13 Norte 0 -- -- 68
2020-01-21 04:00:00 9.6 7 Norte 16 Norte 0 -- -- 68
2020-01-21 03:00:00 9.9 11 Noroeste 23 Norte 0 -- -- 64
2020-01-21 02:00:00 8.8 3 Norte 10 Oeste 0 -- -- 75
2020-01-21 01:00:00 9.2 5 Norte 11 Norte 0 -- -- 77
2020-01-21 00:00:00 9.5 6 Norte 14 Norte 0 -- -- 77
2020-01-20 23:00:00 9.3 10 Norte 18 Norte 0.2 -- -- 77
2020-01-20 22:00:00 9.6 9 Norte 13 Nordeste 0.2 -- -- 80
2020-01-20 21:00:00 10.7 11 Norte 16 Norte 0 -- -- 67
2020-01-20 20:00:00 9.8 8 Norte 13 Noroeste 0 -- -- 73
2020-01-20 19:00:00 9.5 3 Norte 9 Noroeste 0 -- -- 79
2020-01-20 18:00:00 10.2 4 Norte 15 Este 0 -- -- 77
2020-01-20 17:00:00 10.2 3 Oeste 5 Norte 0 -- -- 76
2020-01-20 16:00:00 10.2 2 Oeste 12 Sudeste 0 -- -- 71
2020-01-20 15:00:00 11.1 6 Sudeste 15 Sudeste 0 -- -- 64
2020-01-20 14:00:00 11.1 3 Este 14 Sudeste 0 -- -- 63
2020-01-20 13:00:00 11.1 3 Sudeste 15 Sur 0 -- -- 58
2020-01-20 12:00:00 11.1 5 Sudoeste 18 Sur 0 -- -- 61
2020-01-20 11:00:00 10.7 4 Sudoeste 9 Sudoeste 0 -- -- 61
2020-01-20 10:00:00 9.5 2 Norte 18 Noroeste 0 -- -- 72
2020-01-20 09:00:00 8.8 4 Nordeste 26 Noroeste 0 -- -- 72
2020-01-20 08:00:00 7.7 15 Noroeste 32 Noroeste 0.8 -- -- 72
2020-01-20 07:00:00 10 14 Noroeste 27 Noroeste 0 -- -- 52
2020-01-20 06:00:00 10.6 13 Noroeste 26 Oeste 0 -- -- 50
2020-01-20 05:00:00 10.7 12 Noroeste 21 Noroeste 0 -- -- 52
2020-01-20 04:00:00 11 12 Noroeste 24 Noroeste 0 -- -- 51
2020-01-20 03:00:00 10.2 8 Noroeste 16 Noroeste 0 -- -- 55
2020-01-20 02:00:00 10.2 5 Norte 14 Noroeste 0 -- -- 58
2020-01-20 01:00:00 10.5 11 Norte 16 Noroeste 0 -- -- 60
2020-01-20 00:00:00 10.6 4 Sudoeste 19 Sudoeste 0 -- -- 72
2020-01-19 23:00:00 11.6 5 Oeste 22 Sudeste 0 -- -- 70
2020-01-19 22:00:00 12.9 6 Norte 26 Norte 0 -- -- 46
2020-01-19 21:00:00 13.1 10 Norte 43 Norte 0 -- -- 46
2020-01-19 20:00:00 12.9 13 Noroeste 40 Norte 0 -- -- 48
2020-01-19 19:00:00 13.2 13 Norte 36 Norte 0 -- -- 45
2020-01-19 18:00:00 13.7 10 Este 50 Norte 0 -- -- 48
2020-01-19 17:00:00 13 17 Noroeste 38 Oeste 0 -- -- 53
2020-01-19 16:00:00 13.2 10 Noroeste 36 Oeste 0 -- -- 56
2020-01-19 15:00:00 14.9 10 Noroeste 23 Noroeste 0 -- -- 48
2020-01-19 14:00:00 14.4 11 Noroeste 46 Norte 0 -- -- 48
2020-01-19 13:00:00 14.6 13 Noroeste 53 Noroeste 0 -- -- 49
2020-01-19 12:00:00 15.9 13 Oeste 39 Oeste 0 -- -- 44
2020-01-19 11:00:00 14 13 Sudoeste 37 Oeste 0 -- -- 55
2020-01-19 10:00:00 13.4 12 Noroeste 47 Noroeste 0 -- -- 56
2020-01-19 09:00:00 12.6 17 Noroeste 50 Oeste 0 -- -- 56
2020-01-19 08:00:00 12.7 15 Noroeste 46 Noroeste 0 -- -- 54
2020-01-19 07:00:00 13 15 Noroeste 37 Oeste 0 -- -- 55
2020-01-19 06:00:00 14 17 Noroeste 37 Noroeste 0 -- -- 53
2020-01-19 05:00:00 14.8 12 Noroeste 32 Noroeste 0 -- -- 49
2020-01-19 04:00:00 15.4 9 Oeste 31 Noroeste 0 -- -- 53
2020-01-19 03:00:00 15 12 Noroeste 24 Noroeste 0 -- -- 67
2020-01-19 02:00:00 13.6 5 Noroeste 14 Oeste 0 -- -- 91
2020-01-19 01:00:00 13.9 9 Noroeste 17 Oeste 0.4 -- -- 85
2020-01-19 00:00:00 14.3 9 Oeste 18 Oeste 0 -- -- 78
2020-01-18 23:00:00 14.1 10 Oeste 21 Noroeste 0 -- -- 77
2020-01-18 22:00:00 14.7 9 Noroeste 16 Oeste 0 -- -- 72
2020-01-18 21:00:00 14.7 6 Oeste 16 Oeste 0 -- -- 76
2020-01-18 20:00:00 14.1 4 Oeste 14 Oeste 0 -- -- 80
2020-01-18 19:00:00 13.8 5 Oeste 13 Sudoeste 0 -- -- 79
2020-01-18 18:00:00 14.4 0 Calma 4 Sur 0 -- -- 80
2020-01-18 17:00:00 14.5 0 Calma 3 Sur 0 -- -- 76
2020-01-18 16:00:00 14.7 2 Sur 8 Sur 0 -- -- 76
2020-01-18 15:00:00 15.4 4 Sudeste 11 Este 0 -- -- 73
2020-01-18 14:00:00 14 4 Nordeste 10 Nordeste 0.2 -- -- 85
2020-01-18 13:00:00 14.6 2 Sur 10 Noroeste 0.2 -- -- 83
2020-01-18 12:00:00 14.5 5 Norte 8 Norte 0 -- -- 74
2020-01-18 11:00:00 15.1 0 Calma 5 Noroeste 0 -- -- 68
2020-01-18 10:00:00 14 0 Calma 9 Norte 0 -- -- 68
2020-01-18 09:00:00 13 3 Noroeste 9 Noroeste 0 -- -- 74
2020-01-18 08:00:00 13.3 2 Norte 14 Norte 0 -- -- 66
2020-01-18 07:00:00 13.7 9 Norte 15 Norte 0 -- -- 55
2020-01-18 06:00:00 13.8 8 Norte 14 Norte 0 -- -- 55
2020-01-18 05:00:00 13.5 6 Norte 15 Norte 0 -- -- 55
2020-01-18 04:00:00 12.9 5 Norte 14 Norte 0 -- -- 56
2020-01-18 03:00:00 13 5 Norte 9 Noroeste 0 -- -- 65
2020-01-18 02:00:00 13.6 6 Noroeste 10 Noroeste 0 -- -- 73
2020-01-18 01:00:00 13.5 5 Noroeste 8 Noroeste 0 -- -- 64
2020-01-18 00:00:00 14.5 4 Este 16 Norte 0 -- -- 55
2020-01-17 23:00:00 14.8 14 Norte 18 Norte 0 -- -- 52
2020-01-17 22:00:00 14.9 6 Norte 14 Norte 0 -- -- 57
2020-01-17 21:00:00 14.6 10 Norte 14 Norte 0 -- -- 60
2020-01-17 20:00:00 14.3 9 Norte 15 Norte 0 -- -- 64
2020-01-17 19:00:00 14.5 8 Norte 12 Norte 0 -- -- 76
2020-01-17 18:00:00 16.8 0 Calma 8 Sur 0 -- -- 71
2020-01-17 17:00:00 18.4 3 Sur 11 Este 0 -- -- 65
2020-01-17 16:00:00 19.9 4 Sudeste 13 Sudeste 0 -- -- 61
2020-01-17 15:00:00 20 4 Sudeste 13 Sudeste 0 -- -- 57
2020-01-17 14:00:00 19.7 5 Sudeste 13 Sudeste 0 -- -- 61
2020-01-17 13:00:00 20 3 Este 23 Oeste 0 -- -- 49
2020-01-17 12:00:00 19.1 9 Oeste 20 Oeste 0 -- -- 45
2020-01-17 11:00:00 16.8 3 Este 9 Sur 0 -- -- 49
2020-01-17 10:00:00 14.1 4 Nordeste 13 Norte 0 -- -- 57
2020-01-17 09:00:00 11.8 3 Norte 15 Norte 0 -- -- 55
2020-01-17 08:00:00 10.6 8 Norte 12 Norte 0 -- -- 58
2020-01-17 07:00:00 10.9 6 Norte 9 Norte 0 -- -- 57
2020-01-17 06:00:00 10.4 4 Norte 10 Oeste 0 -- -- 61
2020-01-17 05:00:00 10.7 5 Norte 10 Norte 0 -- -- 60
2020-01-17 04:00:00 10.6 2 Nordeste 9 Norte 0 -- -- 62
2020-01-17 03:00:00 10.4 4 Nordeste 10 Norte 0 -- -- 60
2020-01-17 02:00:00 10.7 7 Norte 10 Norte 0 -- -- 57
2020-01-17 01:00:00 10.9 6 Norte 9 Nordeste 0 -- -- 59
2020-01-17 00:00:00 10.4 6 Nordeste 9 Nordeste 0 -- -- 60
2020-01-16 23:00:00 11.1 0 Calma 10 Oeste 0 -- -- 70
2020-01-16 22:00:00 10.9 3 Noroeste 10 Norte 0 -- -- 67
2020-01-16 21:00:00 11 4 Norte 9 Norte 0 -- -- 75
2020-01-16 20:00:00 11.4 6 Norte 11 Norte 0 -- -- 87
2020-01-16 19:00:00 12.9 2 Oeste 4 Oeste 0 -- -- 85
2020-01-16 18:00:00 15.3 3 Sur 9 Sudoeste 0 -- -- 77
2020-01-16 17:00:00 16.3 4 Sudoeste 11 Sudoeste 0 -- -- 73
2020-01-16 16:00:00 17 5 Sur 11 Sur 0 -- -- 70
2020-01-16 15:00:00 17.1 5 Sudeste 12 Sur 0 -- -- 62
2020-01-16 14:00:00 17.5 6 Sur 11 Sur 0 -- -- 62
2020-01-16 13:00:00 17.7 5 Sur 10 Sur 0 -- -- 56
2020-01-16 12:00:00 17 4 Sur 8 Sur 0 -- -- 55
2020-01-16 11:00:00 15.6 3 Sudoeste 7 Sudeste 0 -- -- 65
2020-01-16 10:00:00 13 3 Nordeste 9 Norte 0 -- -- 61
2020-01-16 09:00:00 10.3 6 Norte 12 Norte 0 -- -- 63
2020-01-16 08:00:00 10.1 9 Norte 12 Norte 0 -- -- 63
2020-01-16 07:00:00 10.2 7 Norte 10 Norte 0 -- -- 65
2020-01-16 06:00:00 10.2 7 Norte 11 Norte 0 -- -- 66
2020-01-16 05:00:00 10.2 6 Norte 11 Norte 0 -- -- 68
2020-01-16 04:00:00 10.3 7 Norte 12 Norte 0 -- -- 72
2020-01-16 03:00:00 10.4 8 Norte 12 Norte 0 -- -- 69
2020-01-16 02:00:00 10.2 9 Norte 12 Nordeste 0 -- -- 71
2020-01-16 01:00:00 10.6 3 Noroeste 10 Norte 0 -- -- 78
2020-01-16 00:00:00 10.4 5 Nordeste 12 Norte 0 -- -- 79
2020-01-15 23:00:00 10.6 9 Norte 12 Norte 0 -- -- 83
2020-01-15 22:00:00 10.8 7 Norte 10 Norte 0 -- -- 82
2020-01-15 21:00:00 10.8 6 Norte 10 Nordeste 0 -- -- 85
2020-01-15 20:00:00 11.3 4 Nordeste 8 Norte 0 -- -- 85
2020-01-15 19:00:00 12.3 3 Nordeste 8 Nordeste 0 -- -- 82
2020-01-15 18:00:00 15.6 0 Calma 8 Sur 0 -- -- 72
2020-01-15 17:00:00 16.7 3 Sur 10 Sudoeste 0 -- -- 67
2020-01-15 16:00:00 16.9 6 Sudoeste 12 Sudoeste 0 -- -- 63
2020-01-15 15:00:00 17.1 5 Sudeste 12 Sur 0 -- -- 55
2020-01-15 14:00:00 16.6 6 Sudeste 15 Sur 0 -- -- 60
2020-01-15 13:00:00 16.3 7 Sur 14 Sudeste 0 -- -- 56
2020-01-15 12:00:00 15.7 5 Sudeste 10 Sudeste 0 -- -- 57
2020-01-15 11:00:00 14.6 5 Sur 8 Sur 0 -- -- 61
2020-01-15 10:00:00 11.6 4 Este 10 Norte 0 -- -- 64
2020-01-15 09:00:00 10.4 7 Norte 12 Norte 0 -- -- 61
2020-01-15 08:00:00 9.9 7 Norte 13 Norte 0 -- -- 63
2020-01-15 07:00:00 10.1 6 Norte 13 Norte 0 -- -- 62
2020-01-15 06:00:00 10.4 8 Norte 14 Norte 0 -- -- 59
2020-01-15 05:00:00 10.2 9 Norte 12 Norte 0 -- -- 62
2020-01-15 04:00:00 10.3 5 Norte 8 Norte 0 -- -- 60
2020-01-15 03:00:00 10.1 5 Norte 10 Norte 0 -- -- 59
2020-01-15 02:00:00 10.6 4 Norte 11 Norte 0 -- -- 67
2020-01-15 01:00:00 10.3 3 Norte 12 Norte 0 -- -- 63
2020-01-15 00:00:00 10.7 5 Norte 16 Norte 0 -- -- 62
2020-01-14 23:00:00 10.9 12 Norte 17 Norte 0 -- -- 66
2020-01-14 22:00:00 11.1 9 Norte 13 Norte 0 -- -- 63
2020-01-14 21:00:00 11.1 10 Norte 14 Norte 0 -- -- 72
2020-01-14 20:00:00 11.2 9 Norte 13 Norte 0 -- -- 74
2020-01-14 19:00:00 11.7 5 Norte 9 Norte 0 -- -- 76
2020-01-14 18:00:00 13.8 4 Oeste 13 Sudoeste 0 -- -- 68
2020-01-14 17:00:00 14.4 4 Sudoeste 17 Oeste 0 -- -- 66
2020-01-14 16:00:00 15 10 Sudoeste 22 Sudoeste 0 -- -- 62
2020-01-14 15:00:00 15.6 12 Sudoeste 25 Sudoeste 0 -- -- 61
2020-01-14 14:00:00 16 10 Sudoeste 22 Sudoeste 0 -- -- 54
2020-01-14 13:00:00 15.2 9 Sudoeste 19 Sudoeste 0 -- -- 56
2020-01-14 12:00:00 15.4 6 Sudoeste 14 Sudoeste 0 -- -- 52
2020-01-14 11:00:00 14.3 3 Sur 7 Nordeste 0 -- -- 58
2020-01-14 10:00:00 11.6 3 Nordeste 10 Norte 0 -- -- 52
2020-01-14 09:00:00 8.4 4 Norte 12 Norte 0 -- -- 55
2020-01-14 08:00:00 8.1 6 Norte 10 Norte 0 -- -- 54
2020-01-14 07:00:00 8.5 0 Calma 12 Norte 0 -- -- 51
2020-01-14 06:00:00 8.9 2 Norte 11 Norte 0 -- -- 52
2020-01-14 05:00:00 8.8 7 Norte 10 Norte 0 -- -- 57
2020-01-14 04:00:00 8.9 3 Norte 9 Norte 0 -- -- 62
2020-01-14 03:00:00 8.8 0 Calma 9 Norte 0 -- -- 67
2020-01-14 02:00:00 8.9 3 Norte 12 Norte 0 -- -- 79
2020-01-14 01:00:00 9.1 8 Norte 10 Norte 0 -- -- 83
2020-01-14 00:00:00 9.5 8 Norte 10 Norte 0 -- -- 86
2020-01-13 23:00:00 9.3 8 Norte 10 Norte 0 -- -- 87
2020-01-13 22:00:00 9.8 7 Norte 10 Norte 0 -- -- 87
2020-01-13 21:00:00 10.1 5 Norte 9 Norte 0 -- -- 87
2020-01-13 20:00:00 10.8 4 Noroeste 9 Noroeste 0 -- -- 84
2020-01-13 19:00:00 12.1 0 Calma 6 Sur 0 -- -- 79
2020-01-13 18:00:00 13.2 3 Sudoeste 10 Oeste 0 -- -- 77
2020-01-13 17:00:00 14.1 5 Sur 13 Sur 0 -- -- 72
2020-01-13 16:00:00 15.1 6 Sur 13 Sudoeste 0 -- -- 68
2020-01-13 15:00:00 15.6 5 Sudoeste 14 Sur 0 -- -- 67
2020-01-13 14:00:00 15.5 6 Sur 13 Sudoeste 0 -- -- 66
2020-01-13 13:00:00 15.3 6 Sur 13 Sudoeste 0 -- -- 70
2020-01-13 12:00:00 14.7 6 Sur 12 Sur 0 -- -- 71
2020-01-13 11:00:00 13.8 5 Sudoeste 9 Sudoeste 0 -- -- 76
2020-01-13 10:00:00 11.6 0 Calma 10 Norte 0 -- -- 81
2020-01-13 09:00:00 9.1 10 Norte 17 Norte 0 -- -- 79
2020-01-13 08:00:00 9.4 12 Norte 17 Norte 0 -- -- 84
2020-01-13 07:00:00 9 10 Norte 15 Norte 0 -- -- 87
2020-01-13 06:00:00 9.1 9 Norte 15 Norte 0 -- -- 86
2020-01-13 05:00:00 9.3 9 Norte 14 Norte 0 -- -- 87
2020-01-13 04:00:00 9.8 8 Norte 15 Norte 0 -- -- 86
2020-01-13 03:00:00 9.8 10 Norte 14 Norte 0 -- -- 85
2020-01-13 02:00:00 10 8 Norte 12 Norte 0 -- -- 84
2020-01-13 01:00:00 9.9 10 Norte 15 Norte 0 -- -- 82
2020-01-13 00:00:00 11 9 Norte 14 Norte 0 -- -- 80
2020-01-12 23:00:00 11.1 9 Norte 13 Norte 0 -- -- 80
2020-01-12 22:00:00 12.1 6 Norte 11 Norte 0 -- -- 80
2020-01-12 21:00:00 12.2 5 Norte 8 Norte 0 -- -- 82
2020-01-12 20:00:00 11.9 4 Norte 6 Norte 0 -- -- 85
2020-01-12 19:00:00 12.3 0 Calma 8 Sur 0 -- -- 82
2020-01-12 18:00:00 14.1 4 Sudoeste 12 Sur 0 -- -- 76
2020-01-12 17:00:00 15.3 6 Sudoeste 15 Sur 0 -- -- 74
2020-01-12 16:00:00 15.7 7 Sur 16 Sudoeste 0 -- -- 72
2020-01-12 15:00:00 15.4 9 Sur 18 Sudoeste 0 -- -- 73
2020-01-12 14:00:00 15.3 9 Sudoeste 20 Sur 0 -- -- 74
2020-01-12 13:00:00 15.5 8 Sudoeste 16 Sur 0 -- -- 71
2020-01-12 12:00:00 14.7 7 Sur 13 Sur 0 -- -- 71
2020-01-12 11:00:00 14.1 5 Sudoeste 10 Sudoeste 0 -- -- 70
2020-01-12 10:00:00 12.1 2 Sudoeste 11 Norte 0 -- -- 73
2020-01-12 09:00:00 9.5 9 Norte 13 Norte 0 -- -- 80
2020-01-12 08:00:00 9.4 8 Norte 14 Nordeste 0 -- -- 80
2020-01-12 07:00:00 9.4 10 Norte 14 Norte 0 -- -- 77
2020-01-12 06:00:00 9.6 11 Norte 15 Norte 0 -- -- 78
2020-01-12 05:00:00 9.8 12 Norte 15 Norte 0 -- -- 80
2020-01-12 04:00:00 10.1 12 Norte 15 Norte 0 -- -- 79
2020-01-12 03:00:00 10.5 10 Norte 13 Norte 0 -- -- 77
2020-01-12 02:00:00 11.5 4 Norte 12 Norte 0 -- -- 73
2020-01-12 01:00:00 11.9 7 Norte 13 Norte 0 -- -- 70
2020-01-12 00:00:00 11.8 9 Norte 14 Norte 0 -- -- 69
2020-01-11 23:00:00 11.3 9 Norte 14 Norte 0 -- -- 70
2020-01-11 22:00:00 11.3 9 Norte 13 Norte 0 -- -- 70
2020-01-11 21:00:00 11.7 6 Norte 12 Norte 0 -- -- 71
2020-01-11 20:00:00 11.3 8 Norte 12 Norte 0 -- -- 74
2020-01-11 19:00:00 11.9 8 Norte 10 Norte 0 -- -- 73
2020-01-11 18:00:00 14.7 0 Calma 8 Sur 0 -- -- 68
2020-01-11 17:00:00 15.8 3 Sudeste 12 Sur 0 -- -- 66
2020-01-11 16:00:00 16.7 6 Sur 13 Sudeste 0 -- -- 65
2020-01-11 15:00:00 16.6 7 Sudoeste 15 Sudoeste 0 -- -- 63
2020-01-11 14:00:00 16.5 6 Sur 14 Sur 0 -- -- 63
2020-01-11 13:00:00 15.9 6 Sur 12 Sudeste 0 -- -- 64
2020-01-11 12:00:00 15.6 5 Sur 14 Sur 0 -- -- 66
2020-01-11 11:00:00 14.4 6 Sudoeste 10 Sudoeste 0 -- -- 66
2020-01-11 10:00:00 12.3 2 Nordeste 13 Norte 0 -- -- 67
2020-01-11 09:00:00 10.2 10 Norte 15 Norte 0 -- -- 67
2020-01-11 08:00:00 9.9 9 Norte 15 Norte 0 -- -- 72
2020-01-11 07:00:00 9.9 10 Norte 17 Norte 0 -- -- 71
2020-01-11 06:00:00 10.3 10 Norte 15 Norte 0 -- -- 73
2020-01-11 05:00:00 10.3 10 Norte 13 Norte 0 -- -- 64
2020-01-11 04:00:00 10.9 7 Noroeste 14 Norte 0 -- -- 70
2020-01-11 03:00:00 10.3 9 Norte 15 Norte 0 -- -- 70
2020-01-11 02:00:00 10.8 8 Norte 14 Nordeste 0 -- -- 71
2020-01-11 01:00:00 10.9 9 Norte 15 Norte 0 -- -- 64
2020-01-11 00:00:00 11.3 9 Norte 14 Norte 0 -- -- 62
2020-01-10 23:00:00 12.9 6 Norte 13 Nordeste 0 -- -- 67
2020-01-10 22:00:00 13.6 6 Nordeste 20 Nordeste 0 -- -- 64
2020-01-10 21:00:00 13.9 6 Nordeste 24 Nordeste 0 -- -- 53
2020-01-10 20:00:00 13.8 12 Nordeste 26 Este 0 -- -- 61
2020-01-10 19:00:00 12.6 4 Norte 9 Norte 0 -- -- 79
2020-01-10 18:00:00 15.9 2 Sur 9 Este 0 -- -- 72
2020-01-10 17:00:00 16.5 5 Sudeste 14 Este 0 -- -- 71
2020-01-10 16:00:00 17.3 4 Sudeste 11 Sudeste 0 -- -- 61
2020-01-10 15:00:00 16.8 3 Sudeste 10 Sudeste 0 -- -- 63
2020-01-10 14:00:00 16.3 5 Sur 12 Sur 0 -- -- 66
2020-01-10 13:00:00 15.8 4 Sudoeste 10 Sur 0 -- -- 65
2020-01-10 12:00:00 15 5 Sudoeste 11 Sudoeste 0 -- -- 69
2020-01-10 11:00:00 14.2 6 Sudoeste 12 Sudoeste 0 -- -- 69
2020-01-10 10:00:00 11.9 0 Calma 6 Norte 0 -- -- 75
2020-01-10 09:00:00 10 5 Norte 11 Norte 0 -- -- 78
2020-01-10 08:00:00 9.2 7 Norte 12 Norte 0 -- -- 81
2020-01-10 07:00:00 9 6 Norte 10 Norte 0 -- -- 85
2020-01-10 06:00:00 9.7 4 Este 13 Norte 0 -- -- 85
2020-01-10 05:00:00 9.7 8 Norte 14 Nordeste 0 -- -- 88
2020-01-10 04:00:00 9.8 6 Norte 12 Norte 0 -- -- 87
2020-01-10 03:00:00 10 4 Norte 14 Norte 0 -- -- 84
2020-01-10 02:00:00 10.4 8 Norte 13 Norte 0 -- -- 82
2020-01-10 01:00:00 11.5 7 Norte 10 Norte 0 -- -- 76
2020-01-10 00:00:00 12.4 4 Noroeste 8 Noroeste 0 -- -- 76
2020-01-09 23:00:00 12.2 6 Noroeste 9 Noroeste 0 -- -- 78
2020-01-09 22:00:00 11.9 5 Noroeste 12 Noroeste 0 -- -- 81
2020-01-09 21:00:00 11.4 5 Noroeste 11 Noroeste 0 -- -- 83
2020-01-09 20:00:00 12 4 Noroeste 8 Noroeste 0 -- -- 83
2020-01-09 19:00:00 12.7 0 Calma 6 Norte 0 -- -- 82
2020-01-09 18:00:00 13.6 4 Sudoeste 12 Sudoeste 0 -- -- 77
2020-01-09 17:00:00 14.1 5 Sudoeste 9 Sudoeste 0 -- -- 72
2020-01-09 16:00:00 14.1 2 Sudoeste 6 Sudeste 0 -- -- 69
2020-01-09 15:00:00 14.3 3 Sur 8 Sudoeste 0 -- -- 71
2020-01-09 14:00:00 14.1 5 Sudoeste 10 Sudeste 0 -- -- 69
2020-01-09 13:00:00 13.9 3 Sudeste 8 Sudeste 0 -- -- 71
2020-01-09 12:00:00 13.5 0 Calma 4 Sudeste 0 -- -- 73
2020-01-09 11:00:00 13.1 0 Calma 5 Noroeste 0 -- -- 72
2020-01-09 10:00:00 12.1 2 Norte 6 Norte 0 -- -- 77
2020-01-09 09:00:00 11.8 2 Noroeste 8 Norte 0 -- -- 75
2020-01-09 08:00:00 12.2 5 Norte 10 Nordeste 0 -- -- 71
2020-01-09 07:00:00 11.6 4 Norte 11 Nordeste 0 -- -- 76
2020-01-09 06:00:00 11.6 5 Norte 10 Norte 0 -- -- 77
2020-01-09 05:00:00 12.1 5 Norte 8 Noroeste 0 -- -- 80
2020-01-09 04:00:00 11.9 3 Norte 4 Nordeste 0 -- -- 83
2020-01-09 03:00:00 12 2 Nordeste 4 Norte 0 -- -- 81
2020-01-09 02:00:00 12.1 0 Calma 5 Oeste 0 -- -- 82
2020-01-09 01:00:00 12.2 0 Calma 12 Norte 0 -- -- 80
2020-01-09 00:00:00 11.8 9 Norte 15 Norte 0 -- -- 82
2020-01-08 23:00:00 10.9 9 Norte 14 Nordeste 0 -- -- 89
2020-01-08 22:00:00 10.4 5 Nordeste 8 Norte 0 -- -- 94
2020-01-08 21:00:00 10.5 4 Norte 9 Norte 0 -- -- 92
2020-01-08 20:00:00 10.9 3 Norte 6 Norte 0 -- -- 91
2020-01-08 19:00:00 11.6 2 Noroeste 5 Noroeste 0 -- -- 88
2020-01-08 18:00:00 14 0 Calma 10 Sudeste 0 -- -- 80
2020-01-08 17:00:00 15 4 Sudeste 10 Sur 0 -- -- 76
2020-01-08 16:00:00 15.5 5 Sur 9 Sudoeste 0 -- -- 75
2020-01-08 15:00:00 15.7 5 Sur 12 Sudoeste 0 -- -- 76
2020-01-08 14:00:00 14.9 4 Sur 11 Sur 0 -- -- 80
2020-01-08 13:00:00 14.9 5 Sur 10 Sur 0 -- -- 77
2020-01-08 12:00:00 14.3 4 Sur 9 Sudoeste 0 -- -- 82
2020-01-08 11:00:00 12.2 2 Sudoeste 5 Sur 0 -- -- 89
2020-01-08 10:00:00 10.6 0 Calma 7 Norte 0 -- -- 93
2020-01-08 09:00:00 9.4 6 Norte 10 Norte 0 -- -- 89
2020-01-08 08:00:00 8.9 6 Norte 10 Norte 0 -- -- 85
2020-01-08 07:00:00 9.2 4 Norte 9 Norte 0 -- -- 86
2020-01-08 06:00:00 9.1 7 Norte 10 Norte 0 -- -- 85
2020-01-08 05:00:00 9.2 6 Norte 10 Norte 0 -- -- 86
2020-01-08 04:00:00 9.3 8 Norte 12 Nordeste 0 -- -- 90
2020-01-08 03:00:00 9.8 5 Norte 9 Norte 0 -- -- 90
2020-01-08 02:00:00 9.8 4 Norte 10 Norte 0 -- -- 90
2020-01-08 01:00:00 9.7 7 Norte 9 Norte 0 -- -- 89
2020-01-08 00:00:00 10.1 3 Noroeste 6 Noroeste 0 -- -- 91
2020-01-07 23:00:00 10.3 3 Norte 8 Norte 0 -- -- 89
2020-01-07 22:00:00 10.4 4 Norte 11 Norte 0 -- -- 90
2020-01-07 21:00:00 10.3 8 Norte 10 Norte 0 -- -- 91
2020-01-07 20:00:00 10.6 6 Norte 8 Norte 0 -- -- 89
2020-01-07 19:00:00 11.6 0 Calma 7 Noroeste 0 -- -- 85
2020-01-07 18:00:00 13.7 0 Calma 8 Sur 0 -- -- 78
2020-01-07 17:00:00 15.2 4 Sur 9 Sur 0 -- -- 72
2020-01-07 16:00:00 15.6 5 Sur 13 Sudoeste 0 -- -- 71
2020-01-07 15:00:00 15.6 5 Sur 12 Sudoeste 0 -- -- 69
2020-01-07 14:00:00 16 5 Sur 12 Sudoeste 0 -- -- 69
2020-01-07 13:00:00 15.5 4 Sur 10 Sudeste 0 -- -- 68
2020-01-07 12:00:00 15 4 Sur 9 Sur 0 -- -- 67
2020-01-07 11:00:00 14.1 4 Sur 7 Sudeste 0 -- -- 70
2020-01-07 10:00:00 12 0 Calma 12 Norte 0 -- -- 79
2020-01-07 09:00:00 9.6 9 Norte 13 Norte 0 -- -- 81
2020-01-07 08:00:00 9.3 8 Norte 14 Norte 0 -- -- 80
2020-01-07 07:00:00 9.2 9 Norte 13 Norte 0 -- -- 82
2020-01-07 06:00:00 9.3 8 Norte 13 Norte 0 -- -- 82
2020-01-07 05:00:00 9.4 8 Norte 13 Norte 0 -- -- 82
2020-01-07 04:00:00 9.2 10 Norte 15 Norte 0 -- -- 81
2020-01-07 03:00:00 9.6 11 Norte 16 Norte 0 -- -- 79
2020-01-07 02:00:00 9.7 12 Norte 17 Norte 0 -- -- 79
2020-01-07 01:00:00 9.8 12 Norte 16 Norte 0 -- -- 79
2020-01-07 00:00:00 9.9 11 Norte 16 Norte 0 -- -- 81
2020-01-06 23:00:00 10 11 Norte 14 Norte 0 -- -- 81
2020-01-06 22:00:00 10.2 10 Norte 15 Norte 0 -- -- 80
2020-01-06 21:00:00 11.1 11 Norte 14 Norte 0 -- -- 77
2020-01-06 20:00:00 12.1 0 Calma 4 Nordeste 0 -- -- 75
2020-01-06 19:00:00 12.6 3 Norte 6 Nordeste 0 -- -- 73
2020-01-06 18:00:00 13 0 Calma 5 Este 0 -- -- 73
2020-01-06 17:00:00 15 3 Sur 11 Sur 0 -- -- 65
2020-01-06 16:00:00 15.4 5 Sudeste 11 Sudeste 0 -- -- 65
2020-01-06 15:00:00 14.2 3 Sur 10 Sur 0 -- -- 73
2020-01-06 14:00:00 13.9 3 Sur 11 Sur 0 -- -- 74
2020-01-06 13:00:00 15.1 5 Sur 13 Sudoeste 0 -- -- 73
2020-01-06 12:00:00 14.8 5 Sur 11 Sur 0 -- -- 70
2020-01-06 11:00:00 14.1 3 Sur 9 Sudeste 0 -- -- 73
2020-01-06 10:00:00 12.2 0 Calma 15 Norte 0 -- -- 80